• Join FlightAware (Why Join?)
  • Login
  • US Flag 
10:08PM EST


 

Airport Tracker/Info


-or-


 

Live Flight TrackerFlight Track Log ✈ AXM5246 ✈ 15-Oct-2013 ✈ WMKK / KUL - WBGB / BTU

Flight Track Log - Related Links

Times and Time Zones

All times are in EDT time to prevent confusion due to time zone crossing. See the AXM5246 flight status page for this flight to view local times or setup timezone preferences in your user account.

Time Position Orientation Groundspeed Altitude Reporting Facility
EDT Latitude Longitude Course Direction KTS MPH feet Rate Location/Type
07:07PM 2.9180 101.7020 70° East 317 365 7,000  Level FlightAware
07:07PM 2.9290 101.7300 69° East 337 388 7,600 2,460 Climbing FlightAware
07:08PM 2.9470 101.7800 70° East 343 395 9,300 2,820 Climbing FlightAware
07:08PM 2.9690 101.8370 69° East 351 404 11,000 2,880 Climbing FlightAware
07:09PM 2.9900 101.8930 69° East 344 396 12,900 3,480 Climbing FlightAware
07:09PM 3.0140 101.9550 69° East 325 374 15,400 2,700 Climbing FlightAware
07:10PM 3.0320 102.0050 70° East 341 392 16,300 1,260 Climbing FlightAware
07:11PM 3.0480 102.0460 69° East 364 419 16,800 1,440 Climbing FlightAware
07:11PM 3.0710 102.1240 74° East 380 437 18,100 1,860 Climbing FlightAware
07:12PM 3.0870 102.1940 77° East 382 440 19,500 1,860 Climbing FlightAware
07:12PM 3.1000 102.2470 76° East 393 452 20,300 1,560 Climbing FlightAware
07:13PM 3.1140 102.3040 76° East 398 458 21,200 1,500 Climbing FlightAware
07:14PM 3.1330 102.3820 76° East 406 467 22,200 1,500 Climbing FlightAware
07:14PM 3.1510 102.4590 77° East 410 472 23,400 1,560 Climbing FlightAware
07:15PM 3.1740 102.5510 76° East 414 476 24,700 1,140 Climbing FlightAware
07:16PM 3.1960 102.6420 76° East 415 478 25,400 1,260 Climbing FlightAware
07:17PM 3.2120 102.7110 77° East 426 490 26,500 1,140 Climbing FlightAware
07:17PM 3.2270 102.7720 76° East 428 493 26,700 480 Climbing FlightAware
07:18PM 3.2330 102.7950 75° East 429 494 27,200 360 Climbing FlightAware
07:19PM 3.2480 102.8540 76° East 429 494 27,200  Level FlightAware
07:19PM 3.2630 102.9150 76° East 429 494 27,200 1,800 Level FlightAware
07:20PM 3.3050 103.0970 77° East 29,900 2,700 Climbing FlightAware
07:20PM 3.3210 103.1610 76° East 453 521 30,500 960 Climbing FlightAware
07:21PM 3.3360 103.2270 77° East 454 522 31,000 420 Climbing FlightAware
07:21PM 3.2170 102.7310 257° West 31,500 360 Climbing FlightAware
07:24PM 3.2162 102.9292 90° East  Level Estimated
07:25PM 3.2158 103.0235 90° East  Level Estimated
07:26PM 3.2154 103.1179 90° East  Level Estimated
07:26PM 3.2660 103.8480 90° East 444 511 33,000  Level FlightAware
07:27PM 3.2390 103.9440 106° East 443 510 33,000  Level FlightAware
07:28PM 3.2230 104.0060 104° East 443 510 33,000  Level FlightAware
07:28PM 3.2060 104.0670 106° East 443 510 33,000  Level FlightAware
07:29PM 3.1900 104.1290 104° East 443 510 33,000  Level FlightAware
07:29PM 3.1740 104.1900 105° East 443 510 33,000  Level FlightAware
07:30PM 3.1570 104.2510 106° East 443 510 33,000  Level FlightAware
07:31PM 3.1410 104.3130 104° East 443 510 33,000  Level FlightAware
07:31PM 3.1030 104.4380 107° East 419 482 33,000  Level FlightAware
07:32PM 3.0840 104.5050 106° East 420 483 33,000  Level FlightAware
07:32PM 3.0660 104.5730 105° East 420 483 33,000  Level FlightAware
07:33PM 3.0470 104.6390 106° East 421 484 33,000  Level FlightAware
07:34PM 3.0280 104.7100 105° East 422 486 33,000  Level FlightAware
07:34PM 3.0160 104.7720 101° East 421 484 33,000  Level FlightAware
07:35PM 3.0050 104.8300 101° East 421 484 33,000  Level FlightAware
07:35PM 2.9930 104.8890 102° East 421 484 33,000  Level FlightAware
07:36PM 2.9820 104.9470 101° East 421 484 33,000  Level FlightAware
07:37PM 2.9700 105.0060 102° East 421 484 33,000  Level FlightAware
07:37PM 2.9590 105.0650 101° East 421 484 33,000  Level FlightAware
07:38PM 2.9480 105.1230 101° East 421 484 33,000  Level FlightAware
07:38PM 2.9670 105.2620 82° East 418 481 33,000  Level FlightAware
07:39PM 2.9600 105.3250 96° East 419 482 33,000  Level FlightAware
07:40PM 2.9520 105.4070 96° East 419 482 33,000  Level FlightAware
07:40PM 2.9440 105.4840 96° East 419 482 33,000  Level FlightAware
07:41PM 2.9360 105.5570 96° East 417 480 33,000  Level FlightAware
07:42PM 2.9290 105.6260 96° East 417 480 33,000  Level FlightAware
07:42PM 2.9220 105.6930 96° East 419 482 33,000  Level FlightAware
07:43PM 2.9150 105.7550 96° East 422 486 33,000  Level FlightAware
07:43PM 2.9080 105.8260 96° East 424 488 33,000  Level FlightAware
07:44PM 2.9010 105.8920 96° East 426 490 33,000  Level FlightAware
07:44PM 2.8940 105.9630 96° East 427 491 33,000 60 Level FlightAware
07:45PM 2.8850 106.0530 96° East 426 490 33,100 60 Climbing FlightAware
07:46PM 2.8760 106.1380 96° East 424 488 33,100 -120 Level FlightAware
07:47PM 2.8660 106.2210 97° East 416 479 33,000 -120 Descending FlightAware
07:47PM 2.8590 106.2880 96° East 414 476 33,000  Level FlightAware
07:48PM 2.8520 106.3550 96° East 414 476 33,000  Level FlightAware
07:48PM 2.8450 106.4230 96° East 411 473 33,000  Level FlightAware
07:49PM 2.8390 106.4830 96° East 409 471 33,000  Level FlightAware
07:49PM 2.8320 106.5470 96° East 407 468 33,000  Level FlightAware
07:50PM 2.8260 106.6180 95° East 407 468 33,000  Level FlightAware
07:51PM 2.8170 106.6940 97° East 407 468 33,000  Level FlightAware
07:51PM 2.8100 106.7570 96° East 407 468 33,000  Level FlightAware
07:52PM 2.8020 106.8290 96° East 408 470 33,000  Level FlightAware
07:53PM 2.7960 106.8880 96° East 408 470 33,000  Level FlightAware
07:53PM 2.7890 106.9500 96° East 408 470 33,000  Level FlightAware
07:54PM 2.7830 107.0080 96° East 408 470 33,000  Level FlightAware
07:54PM 2.7770 107.0670 96° East 408 470 33,000  Level FlightAware
07:55PM 2.7660 107.1730 96° East 412 474 33,000  Level FlightAware
07:56PM 2.7610 107.2280 95° East 412 474 33,000  Level FlightAware
07:56PM 2.7560 107.2860 95° East 412 474 33,000  Level FlightAware
07:57PM 2.7510 107.3440 95° East 412 474 33,000  Level FlightAware
07:57PM 2.7450 107.4020 96° East 412 474 33,000  Level FlightAware
07:58PM 2.7400 107.4600 95° East 412 474 33,000  Level FlightAware
07:59PM 2.7350 107.5190 95° East 412 474 33,000  Level FlightAware
07:59PM 2.7300 107.5770 95° East 412 474 33,000  Level FlightAware
08:00PM 2.7250 107.6370 95° East 412 474 33,000  Level FlightAware
08:00PM 2.7200 107.6950 95° East 412 474 33,000  Level FlightAware
08:01PM 2.7150 107.7530 95° East 412 474 33,000  Level FlightAware
08:02PM 2.7100 107.8110 95° East 412 474 33,000  Level FlightAware
08:02PM 2.7050 107.8690 95° East 412 474 33,000  Level FlightAware
08:03PM 2.6990 107.9290 96° East 412 474 33,000  Level FlightAware
08:03PM 2.6940 107.9870 95° East 412 474 33,000  Level FlightAware
08:04PM 2.6890 108.0450 95° East 412 474 33,000  Level FlightAware
08:05PM 2.6840 108.1050 95° East 412 474 33,000  Level FlightAware
08:07PM 2.7001 108.2803 85° East  Level Estimated
08:08PM 2.7086 108.3743 85° East  Level Estimated
08:08PM 2.6030 108.6970 85° East 409 471 33,000  Level FlightAware
08:09PM 2.7172 108.4682 85° East  Level Estimated
08:09PM 2.5960 108.7610 96° East 409 471 33,000  Level FlightAware
08:10PM 2.5900 108.8240 95° East 409 471 33,000  Level FlightAware
08:10PM 2.5830 108.8980 95° East 408 470 33,000  Level FlightAware
08:11PM 2.5840 108.9570 89° East 407 468 33,000  Level FlightAware
08:11PM 2.5890 108.9990 83° East 406 467 33,000  Level FlightAware
08:12PM 2.6020 109.0910 82° East 406 467 33,000  Level FlightAware
08:13PM 2.6120 109.1580 82° East 406 467 33,000  Level FlightAware
08:13PM 2.6210 109.2220 82° East 408 470 33,000  Level FlightAware
08:14PM 2.6290 109.2770 82° East 408 470 33,000  Level FlightAware
08:14PM 2.6390 109.3490 82° East 408 470 33,000  Level FlightAware
08:15PM 2.6480 109.4150 82° East 407 468 33,000  Level FlightAware
08:15PM 2.6580 109.4830 82° East 406 467 33,000  Level FlightAware
08:16PM 2.6670 109.5500 82° East 407 468 33,000  Level FlightAware
08:17PM 2.6760 109.6140 82° East 406 467 33,000  Level FlightAware
08:17PM 2.6860 109.6800 81° East 407 468 33,000  Level FlightAware
08:18PM 2.6940 109.7410 83° East 406 467 33,000  Level FlightAware
08:18PM 2.7020 109.7950 82° East 405 466 33,000  Level FlightAware
08:19PM 2.7130 109.8750 82° East 404 465 33,000  Level FlightAware
08:20PM 2.7220 109.9350 81° East 403 464 33,000  Level FlightAware
08:20PM 2.7310 110.0020 82° East 402 463 33,000  Level FlightAware
08:21PM 2.7390 110.0550 81° East 404 465 33,000  Level FlightAware
08:21PM 2.7500 110.1320 82° East 406 467 33,000  Level FlightAware
08:22PM 2.7590 110.1980 82° East 407 468 33,000  Level FlightAware
08:22PM 2.7680 110.2580 81° East 408 470 33,000  Level FlightAware
08:23PM 2.7770 110.3280 83° East 409 471 33,000  Level FlightAware
08:24PM 2.7880 110.3900 80° East 410 472 33,000  Level FlightAware
08:24PM 2.8020 110.4580 78° East 410 472 33,000  Level FlightAware
08:25PM 2.8170 110.5280 78° East 410 472 33,000  Level FlightAware
08:25PM 2.8310 110.5950 78° East 410 472 33,000  Level FlightAware
08:26PM 2.8430 110.6560 79° East 410 472 33,000  Level FlightAware
08:27PM 2.8570 110.7210 78° East 410 472 33,000  Level FlightAware
08:27PM 2.8700 110.7850 79° East 408 470 33,000  Level FlightAware
08:28PM 2.8830 110.8490 79° East 407 468 33,000  Level FlightAware
08:28PM 2.8960 110.9140 79° East 405 466 33,000  Level FlightAware
08:29PM 2.9090 110.9770 78° East 404 465 33,000  Level FlightAware
08:29PM 2.9210 111.0350 78° East 404 465 33,000  Level FlightAware
08:30PM 2.9330 111.0920 78° East 404 465 33,000  Level FlightAware
08:31PM 2.9520 111.1840 78° East 402 463 33,000  Level FlightAware
08:31PM 2.9640 111.2390 78° East 402 463 33,000  Level FlightAware
08:32PM 2.9750 111.2950 79° East 402 463 33,000  Level FlightAware
08:33PM 2.9980 111.4090 79° East 399 459 33,000  Level FlightAware
08:33PM 3.0100 111.4640 78° East 399 459 33,000  Level FlightAware
08:34PM 3.0210 111.5190 79° East 399 459 33,000 -1,560 Level FlightAware
08:35PM 3.0410 111.6220 79° East 405 466 30,900 -1,560 Descending FlightAware
08:35PM 3.0530 111.6780 78° East 405 466 30,900  Level FlightAware
08:36PM 3.0650 111.7340 78° East 405 466 30,900  Level FlightAware
08:37PM 3.0770 111.7900 78° East 405 466 30,900  Level FlightAware
08:37PM 3.0890 111.8480 78° East 405 466 30,900  Level FlightAware
08:38PM 3.1010 111.9040 78° East 405 466 30,900  Level FlightAware
08:38PM 3.1130 111.9600 78° East 405 466 30,900  Level FlightAware
08:39PM 3.1250 112.0160 78° East 405 466 30,900  Level FlightAware
08:40PM 3.1370 112.0740 78° East 405 466 30,900  Level FlightAware
08:40PM 3.1500 112.1320 77° East 405 466 30,900  Level FlightAware
08:41PM 3.1620 112.1880 78° East 405 466 30,900  Level FlightAware
08:42PM 3.1740 112.2440 78° East 405 466 30,900  Level FlightAware
08:42PM 3.1850 112.3000 79° East 405 466 30,900  Level FlightAware
08:43PM 3.1970 112.3560 78° East 405 466 30,900  Level FlightAware
08:43PM 3.2090 112.4130 78° East 405 466 30,900  Level FlightAware
08:44PM 3.2210 112.4690 78° East 405 466 30,900  Level FlightAware
08:47PM 3.1785 112.7106 100° East  Level Estimated
08:48PM 3.1621 112.8035 100° East  Level Estimated
08:49PM 3.1457 112.8965 100° East  Level Estimated
08:50PM 3.1293 112.9894 100° East  Level Estimated
08:51PM 3.1239 113.0205 100° East  Level Estimated
08:52PM 3.1239 113.0205 90° East  Level Estimated
08:53PM 3.1239 113.0205 90° East  Level Estimated
08:54PM 3.1239 113.0205 90° East  Level Estimated
08:55PM 3.1239 113.0205 90° East  Level Estimated
08:56PM 3.1239 113.0205 90° East  Level Estimated
08:57PM 3.1239 113.0205 90° East  Level Estimated
08:58PM 3.1239 113.0205 90° East  Level Estimated
08:59PM 3.1239 113.0205 90° East  Level Estimated
09:00PM 3.1239 113.0205 90° East  Level Estimated
09:01PM 3.1239 113.0205 90° East  Level Estimated
09:02PM 3.1239 113.0205 90° East  Level Estimated
09:03PM 3.1239 113.0205 90° East  Level Estimated
09:04PM 3.1239 113.0205 90° East  Level Estimated
09:05PM 3.1239 113.0205 90° East  Level Estimated
09:06PM 3.1239 113.0205 90° East  Level Estimated
09:07PM 3.1239 113.0205 90° East  Level Estimated
09:08PM 3.1239 113.0205 90° East  Level Estimated